sensor_id;sensor_type;location;lat;lon;timestamp;pressure;altitude;pressure_sealevel;temperature;humidity
20897;BME280;10608;42.600;23.398;2023-12-28T10:06:00;47778.16;;;-138.15;34.63
20897;BME280;10608;42.600;23.398;2023-12-28T10:08:26;47746.63;;;-138.15;34.09
20897;BME280;10608;42.600;23.398;2023-12-28T10:10:52;47758.47;;;-138.15;33.62
20897;BME280;10608;42.600;23.398;2023-12-28T10:13:21;47636.31;;;-138.15;33.74
20897;BME280;10608;42.600;23.398;2023-12-28T10:15:48;47403.88;;;-138.15;32.35
20897;BME280;10608;42.600;23.398;2023-12-28T10:18:17;47059.19;;;-138.15;30.03
20897;BME280;10608;42.600;23.398;2023-12-28T10:20:51;47057.22;;;-138.15;29.07
20897;BME280;10608;42.600;23.398;2023-12-28T10:23:17;47236.44;;;-138.15;29.93
20897;BME280;10608;42.600;23.398;2023-12-28T10:25:43;46856.31;;;-138.15;28.23
20897;BME280;10608;42.600;23.398;2023-12-28T10:28:10;47143.88;;;-138.15;28.79
20897;BME280;10608;42.600;23.398;2023-12-28T10:30:37;47453.13;;;-138.15;30.36
20897;BME280;10608;42.600;23.398;2023-12-28T10:33:07;47506.31;;;-138.15;31.15
20897;BME280;10608;42.600;23.398;2023-12-28T10:35:32;47721.03;;;-138.15;31.94
20897;BME280;10608;42.600;23.398;2023-12-28T10:38:00;47602.84;;;-138.15;31.88
20897;BME280;10608;42.600;23.398;2023-12-28T10:40:28;47593.00;;;-138.15;31.33
20897;BME280;10608;42.600;23.398;2023-12-28T10:43:01;47780.13;;;-138.15;32.81
20897;BME280;10608;42.600;23.398;2023-12-28T10:45:28;47728.91;;;-138.15;32.55
20897;BME280;10608;42.600;23.398;2023-12-28T10:48:10;47468.88;;;-138.15;32.17
20897;BME280;10608;42.600;23.398;2023-12-28T10:50:52;47551.63;;;-138.15;32.23
20897;BME280;10608;42.600;23.398;2023-12-28T10:59:01;47815.59;;;-138.15;34.39
20897;BME280;10608;42.600;23.398;2023-12-28T11:01:36;47821.50;;;-138.15;34.70
20897;BME280;10608;42.600;23.398;2023-12-28T11:04:07;47691.47;;;-138.15;34.43
20897;BME280;10608;42.600;23.398;2023-12-28T11:06:36;47778.16;;;-138.15;34.73
20897;BME280;10608;42.600;23.398;2023-12-28T11:09:04;47656.03;;;-138.15;34.72
20897;BME280;10608;42.600;23.398;2023-12-28T11:11:31;47498.44;;;-138.15;33.68
20897;BME280;10608;42.600;23.398;2023-12-28T11:13:59;47437.38;;;-138.15;33.18
20897;BME280;10608;42.600;23.398;2023-12-28T11:16:26;47707.25;;;-138.15;34.27
20897;BME280;10608;42.600;23.398;2023-12-28T11:18:53;47947.59;;;-138.15;36.89
20897;BME280;10608;42.600;23.398;2023-12-28T11:21:20;48024.41;;;-138.15;39.54
20897;BME280;10608;42.600;23.398;2023-12-28T11:23:47;47916.06;;;-138.15;40.47
20897;BME280;10608;42.600;23.398;2023-12-28T11:26:31;47896.34;;;-138.15;40.75
20897;BME280;10608;42.600;23.398;2023-12-28T11:29:03;47791.94;;;-138.15;40.80
20897;BME280;10608;42.600;23.398;2023-12-28T11:31:32;47799.81;;;-138.15;42.60
20897;BME280;10608;42.600;23.398;2023-12-28T11:33:59;47626.47;;;-138.15;44.98
20897;BME280;10608;42.600;23.398;2023-12-28T11:36:35;46994.19;;;-138.15;46.86
20897;BME280;10608;42.600;23.398;2023-12-28T11:39:03;46308.81;;;-138.15;48.10
20897;BME280;10608;42.600;23.398;2023-12-28T11:41:31;45473.97;;;-138.15;50.03
20897;BME280;10608;42.600;23.398;2023-12-28T11:44:01;44891.22;;;-138.15;49.76
20897;BME280;10608;42.600;23.398;2023-12-28T11:46:29;44475.88;;;-138.15;49.91
20897;BME280;10608;42.600;23.398;2023-12-28T11:49:05;44153.09;;;-138.15;49.99
20897;BME280;10608;42.600;23.398;2023-12-28T11:51:33;44062.56;;;-138.15;48.98
20897;BME280;10608;42.600;23.398;2023-12-28T11:54:00;43873.63;;;-138.15;47.74
20897;BME280;10608;42.600;23.398;2023-12-28T11:56:26;44166.88;;;-138.15;47.74
20897;BME280;10608;42.600;23.398;2023-12-28T11:58:52;44166.88;;;-138.15;47.93
20897;BME280;10608;42.600;23.398;2023-12-28T12:01:17;44123.56;;;-138.15;48.19
20897;BME280;10608;42.600;23.398;2023-12-28T12:03:42;44159.00;;;-138.15;48.74
20897;BME280;10608;42.600;23.398;2023-12-28T12:06:08;44119.63;;;-138.15;48.85
20897;BME280;10608;42.600;23.398;2023-12-28T12:08:34;44109.78;;;-138.15;48.90
20897;BME280;10608;42.600;23.398;2023-12-28T12:11:00;44052.72;;;-138.15;48.90
20897;BME280;10608;42.600;23.398;2023-12-28T12:13:27;44046.81;;;-138.15;48.77
20897;BME280;10608;42.600;23.398;2023-12-28T12:15:53;44017.28;;;-138.15;48.93
20897;BME280;10608;42.600;23.398;2023-12-28T12:18:19;43987.78;;;-138.15;48.62
20897;BME280;10608;42.600;23.398;2023-12-28T12:20:45;44031.06;;;-138.15;48.10
20897;BME280;10608;42.600;23.398;2023-12-28T12:23:10;44046.81;;;-138.15;47.52
20897;BME280;10608;42.600;23.398;2023-12-28T12:25:38;44021.22;;;-138.15;46.95
20897;BME280;10608;42.600;23.398;2023-12-28T12:28:04;44096.00;;;-138.15;47.03
20897;BME280;10608;42.600;23.398;2023-12-28T12:30:29;44096.00;;;-138.15;46.98
20897;BME280;10608;42.600;23.398;2023-12-28T12:32:55;44080.28;;;-138.15;46.86
20897;BME280;10608;42.600;23.398;2023-12-28T12:35:20;44131.44;;;-138.15;46.91
20897;BME280;10608;42.600;23.398;2023-12-28T12:37:47;44092.06;;;-138.15;46.29
20897;BME280;10608;42.600;23.398;2023-12-28T12:40:14;44103.88;;;-138.15;46.08
20897;BME280;10608;42.600;23.398;2023-12-28T12:42:41;44149.16;;;-138.15;46.00
20897;BME280;10608;42.600;23.398;2023-12-28T12:45:08;44147.19;;;-138.15;46.21
20897;BME280;10608;42.600;23.398;2023-12-28T12:47:33;44131.44;;;-138.15;46.49
20897;BME280;10608;42.600;23.398;2023-12-28T12:49:59;44125.53;;;-138.15;46.25
20897;BME280;10608;42.600;23.398;2023-12-28T12:52:25;44111.75;;;-138.15;46.02
20897;BME280;10608;42.600;23.398;2023-12-28T12:54:55;44127.50;;;-138.15;45.61
20897;BME280;10608;42.600;23.398;2023-12-28T12:57:21;44143.25;;;-138.15;45.39
20897;BME280;10608;42.600;23.398;2023-12-28T12:59:47;44139.31;;;-138.15;44.83
20897;BME280;10608;42.600;23.398;2023-12-28T13:02:12;44176.72;;;-138.15;nan
20897;BME280;10608;42.600;23.398;2023-12-28T13:04:38;44194.41;;;-138.15;44.94
20897;BME280;10608;42.600;23.398;2023-12-28T13:07:04;44155.06;;;-138.15;44.80
20897;BME280;10608;42.600;23.398;2023-12-28T13:09:30;44178.69;;;-138.15;44.87
20897;BME280;10608;42.600;23.398;2023-12-28T13:11:55;44178.69;;;-138.15;44.74
20897;BME280;10608;42.600;23.398;2023-12-28T13:14:21;44162.94;;;-138.15;44.66
20897;BME280;10608;42.600;23.398;2023-12-28T13:16:47;44214.09;;;-138.15;44.59
20897;BME280;10608;42.600;23.398;2023-12-28T13:19:13;44237.72;;;-138.15;44.48
20897;BME280;10608;42.600;23.398;2023-12-28T13:21:39;44198.34;;;-138.15;44.43
20897;BME280;10608;42.600;23.398;2023-12-28T13:24:04;44139.31;;;-138.15;44.36
20897;BME280;10608;42.600;23.398;2023-12-28T13:26:30;44241.66;;;-138.15;44.53
20897;BME280;10608;42.600;23.398;2023-12-28T13:28:56;44257.41;;;-138.15;44.70
20897;BME280;10608;42.600;23.398;2023-12-28T13:31:21;44245.59;;;-138.15;44.36
20897;BME280;10608;42.600;23.398;2023-12-28T13:33:47;44253.47;;;-138.15;44.29
20897;BME280;10608;42.600;23.398;2023-12-28T13:36:13;44255.44;;;-138.15;44.66
20897;BME280;10608;42.600;23.398;2023-12-28T13:38:38;44271.19;;;-138.15;44.51
20897;BME280;10608;42.600;23.398;2023-12-28T13:41:03;44259.38;;;-138.15;44.92
20897;BME280;10608;42.600;23.398;2023-12-28T13:43:29;44281.03;;;-138.15;44.90
20897;BME280;10608;42.600;23.398;2023-12-28T13:45:54;44277.09;;;-138.15;45.29
20897;BME280;10608;42.600;23.398;2023-12-28T13:48:20;44281.03;;;-138.15;45.29
20897;BME280;10608;42.600;23.398;2023-12-28T13:50:45;44300.72;;;-138.15;45.39
20897;BME280;10608;42.600;23.398;2023-12-28T13:53:11;44302.69;;;-138.15;45.78
20897;BME280;10608;42.600;23.398;2023-12-28T13:55:36;44298.75;;;-138.15;46.33
20897;BME280;10608;42.600;23.398;2023-12-28T13:58:01;44316.44;;;-138.15;46.49
20897;BME280;10608;42.600;23.398;2023-12-28T14:00:28;44340.06;;;-138.15;46.81
20897;BME280;10608;42.600;23.398;2023-12-28T14:02:53;44328.25;;;-138.15;47.09
20897;BME280;10608;42.600;23.398;2023-12-28T14:05:19;44332.19;;;-138.15;47.22
20897;BME280;10608;42.600;23.398;2023-12-28T14:07:44;44328.25;;;-138.15;47.88
20897;BME280;10608;42.600;23.398;2023-12-28T14:10:10;44304.66;;;-138.15;48.03
20897;BME280;10608;42.600;23.398;2023-12-28T14:12:35;44312.50;;;-138.15;48.06
20897;BME280;10608;42.600;23.398;2023-12-28T14:15:00;44314.47;;;-138.15;48.54
20897;BME280;10608;42.600;23.398;2023-12-28T14:17:26;44292.84;;;-138.15;48.99
20897;BME280;10608;42.600;23.398;2023-12-28T14:19:51;44332.19;;;-138.15;48.94
20897;BME280;10608;42.600;23.398;2023-12-28T14:22:17;44347.94;;;-138.15;50.21
20897;BME280;10608;42.600;23.398;2023-12-28T14:24:43;44245.59;;;-138.15;51.25
20897;BME280;10608;42.600;23.398;2023-12-28T14:27:09;44227.88;;;-138.15;51.25
20897;BME280;10608;42.600;23.398;2023-12-28T14:29:37;44202.28;;;-138.15;51.23
20897;BME280;10608;42.600;23.398;2023-12-28T14:32:03;44157.03;;;-138.15;50.65
20897;BME280;10608;42.600;23.398;2023-12-28T14:34:28;44151.13;;;-138.15;50.87
20897;BME280;10608;42.600;23.398;2023-12-28T14:36:56;44107.81;;;-138.15;50.51
20897;BME280;10608;42.600;23.398;2023-12-28T14:39:22;44033.03;;;-138.15;50.41
20897;BME280;10608;42.600;23.398;2023-12-28T14:41:47;44155.06;;;-138.15;50.42
20897;BME280;10608;42.600;23.398;2023-12-28T14:44:13;44135.38;;;-138.15;50.08
20897;BME280;10608;42.600;23.398;2023-12-28T14:46:38;44119.63;;;-138.15;51.06
20897;BME280;10608;42.600;23.398;2023-12-28T14:49:04;44086.19;;;-138.15;51.93
20897;BME280;10608;42.600;23.398;2023-12-28T14:51:30;44017.28;;;-138.15;52.60
20897;BME280;10608;42.600;23.398;2023-12-28T14:53:55;43958.25;;;-138.15;52.44
20897;BME280;10608;42.600;23.398;2023-12-28T14:56:21;43806.72;;;-138.15;53.70
20897;BME280;10608;42.600;23.398;2023-12-28T14:58:46;43751.59;;;-138.15;53.61
20897;BME280;10608;42.600;23.398;2023-12-28T15:01:17;43637.47;;;-138.15;53.40
20897;BME280;10608;42.600;23.398;2023-12-28T15:03:43;43637.47;;;-138.15;52.85
20897;BME280;10608;42.600;23.398;2023-12-28T15:06:09;43629.59;;;-138.15;52.82
20897;BME280;10608;42.600;23.398;2023-12-28T15:08:35;43574.50;;;-138.15;54.36
20897;BME280;10608;42.600;23.398;2023-12-28T15:11:01;43513.50;;;-138.15;54.35
20897;BME280;10608;42.600;23.398;2023-12-28T15:13:27;43247.84;;;-138.15;55.62
20897;BME280;10608;42.600;23.398;2023-12-28T15:15:52;43356.06;;;-138.15;55.27
20897;BME280;10608;42.600;23.398;2023-12-28T15:18:18;43318.69;;;-138.15;54.14
20897;BME280;10608;42.600;23.398;2023-12-28T15:20:47;43537.09;;;-138.15;50.20
20897;BME280;10608;42.600;23.398;2023-12-28T15:23:16;43668.94;;;-138.15;49.18
20897;BME280;10608;42.600;23.398;2023-12-28T15:25:42;43647.31;;;-138.15;49.65
20897;BME280;10608;42.600;23.398;2023-12-28T15:28:08;43556.78;;;-138.15;51.49
20897;BME280;10608;42.600;23.398;2023-12-28T15:30:33;43562.69;;;-138.15;52.17
20897;BME280;10608;42.600;23.398;2023-12-28T15:33:00;43580.41;;;-138.15;51.57
20897;BME280;10608;42.600;23.398;2023-12-28T15:35:25;43619.75;;;-138.15;51.48
20897;BME280;10608;42.600;23.398;2023-12-28T15:37:50;43655.19;;;-138.15;51.27
20897;BME280;10608;42.600;23.398;2023-12-28T15:40:16;43584.34;;;-138.15;52.10
20897;BME280;10608;42.600;23.398;2023-12-28T15:42:41;43509.56;;;-138.15;52.54
20897;BME280;10608;42.600;23.398;2023-12-28T15:45:07;43598.09;;;-138.15;51.74
20897;BME280;10608;42.600;23.398;2023-12-28T15:47:33;43670.91;;;-138.15;49.57
20897;BME280;10608;42.600;23.398;2023-12-28T15:49:58;43714.22;;;-138.15;49.83
20897;BME280;10608;42.600;23.398;2023-12-28T15:52:26;43741.75;;;-138.15;49.79
20897;BME280;10608;42.600;23.398;2023-12-28T15:54:51;43785.06;;;-138.15;47.86
20897;BME280;10608;42.600;23.398;2023-12-28T15:57:16;43855.91;;;-138.15;48.72
20897;BME280;10608;42.600;23.398;2023-12-28T15:59:42;43816.56;;;-138.15;48.98
20897;BME280;10608;42.600;23.398;2023-12-28T16:02:07;43804.75;;;-138.15;48.71
20897;BME280;10608;42.600;23.398;2023-12-28T16:04:32;43832.28;;;-138.15;48.85
20897;BME280;10608;42.600;23.398;2023-12-28T16:06:58;43828.34;;;-138.15;48.29
20897;BME280;10608;42.600;23.398;2023-12-28T16:09:23;43853.94;;;-138.15;48.48
20897;BME280;10608;42.600;23.398;2023-12-28T16:11:48;43911.00;;;-138.15;47.05
20897;BME280;10608;42.600;23.398;2023-12-28T16:14:14;43911.00;;;-138.15;47.98
20897;BME280;10608;42.600;23.398;2023-12-28T16:16:40;43877.56;;;-138.15;48.30
20897;BME280;10608;42.600;23.398;2023-12-28T16:19:06;43873.63;;;-138.15;47.67
20897;BME280;10608;42.600;23.398;2023-12-28T16:21:32;43907.06;;;-138.15;47.30
20897;BME280;10608;42.600;23.398;2023-12-28T16:23:58;43891.34;;;-138.15;47.77
20897;BME280;10608;42.600;23.398;2023-12-28T16:26:24;43909.03;;;-138.15;48.79
20897;BME280;10608;42.600;23.398;2023-12-28T16:28:49;43948.41;;;-138.15;48.74
20897;BME280;10608;42.600;23.398;2023-12-28T16:31:18;43958.25;;;-138.15;49.77
20897;BME280;10608;42.600;23.398;2023-12-28T16:33:43;44005.47;;;-138.15;48.77
20897;BME280;10608;42.600;23.398;2023-12-28T16:36:09;43995.63;;;-138.15;48.38
20897;BME280;10608;42.600;23.398;2023-12-28T16:38:34;44001.53;;;-138.15;48.74
20897;BME280;10608;42.600;23.398;2023-12-28T16:41:00;44017.28;;;-138.15;48.26
20897;BME280;10608;42.600;23.398;2023-12-28T16:43:28;44027.13;;;-138.15;48.33
20897;BME280;10608;42.600;23.398;2023-12-28T16:45:55;43993.66;;;-138.15;47.60
20897;BME280;10608;42.600;23.398;2023-12-28T16:48:20;44048.78;;;-138.15;47.90
20897;BME280;10608;42.600;23.398;2023-12-28T16:50:46;44003.50;;;-138.15;48.12
20897;BME280;10608;42.600;23.398;2023-12-28T16:53:11;44005.47;;;-138.15;48.10
20897;BME280;10608;42.600;23.398;2023-12-28T16:55:38;43997.59;;;-138.15;47.95
20897;BME280;10608;42.600;23.398;2023-12-28T16:58:03;44017.28;;;-138.15;48.62
20897;BME280;10608;42.600;23.398;2023-12-28T17:00:29;44025.16;;;-138.15;48.39
20897;BME280;10608;42.600;23.398;2023-12-28T17:02:54;44048.78;;;-138.15;48.90
20897;BME280;10608;42.600;23.398;2023-12-28T17:05:20;44021.22;;;-138.15;48.86
20897;BME280;10608;42.600;23.398;2023-12-28T17:07:50;44054.69;;;-138.15;48.81
20897;BME280;10608;42.600;23.398;2023-12-28T17:10:16;44048.78;;;-138.15;48.73
20897;BME280;10608;42.600;23.398;2023-12-28T17:12:42;44044.84;;;-138.15;49.48
20897;BME280;10608;42.600;23.398;2023-12-28T17:15:09;44068.47;;;-138.15;49.15
20897;BME280;10608;42.600;23.398;2023-12-28T17:17:39;44066.50;;;-138.15;48.95
20897;BME280;10608;42.600;23.398;2023-12-28T17:20:05;44117.66;;;-138.15;48.67
20897;BME280;10608;42.600;23.398;2023-12-28T17:22:33;44123.56;;;-138.15;48.98
20897;BME280;10608;42.600;23.398;2023-12-28T17:25:29;44135.38;;;-138.15;49.01
20897;BME280;10608;42.600;23.398;2023-12-28T17:28:03;44076.34;;;-138.15;49.30
20897;BME280;10608;42.600;23.398;2023-12-28T17:30:30;44088.13;;;-138.15;49.97
20897;BME280;10608;42.600;23.398;2023-12-28T17:33:01;44080.28;;;-138.15;49.05
20897;BME280;10608;42.600;23.398;2023-12-28T17:35:27;44040.91;;;-138.15;49.18
20897;BME280;10608;42.600;23.398;2023-12-28T17:37:53;44078.31;;;-138.15;48.64
20897;BME280;10608;42.600;23.398;2023-12-28T17:40:20;44111.75;;;-138.15;49.06
20897;BME280;10608;42.600;23.398;2023-12-28T17:42:57;44107.81;;;-138.15;48.13
20897;BME280;10608;42.600;23.398;2023-12-28T17:48:06;44190.50;;;-138.15;47.38
20897;BME280;10608;42.600;23.398;2023-12-28T17:50:36;44202.28;;;-138.15;47.54
20897;BME280;10608;42.600;23.398;2023-12-28T17:53:03;44206.22;;;-138.15;47.70
20897;BME280;10608;42.600;23.398;2023-12-28T17:55:30;44178.69;;;-138.15;48.43
20897;BME280;10608;42.600;23.398;2023-12-28T17:57:55;44131.44;;;-138.15;49.81
20897;BME280;10608;42.600;23.398;2023-12-28T18:00:20;44147.19;;;-138.15;50.23
20897;BME280;10608;42.600;23.398;2023-12-28T18:02:48;44162.94;;;-138.15;50.13
20897;BME280;10608;42.600;23.398;2023-12-28T18:05:13;44149.16;;;-138.15;49.76
20897;BME280;10608;42.600;23.398;2023-12-28T18:07:39;44170.81;;;-138.15;49.69
20897;BME280;10608;42.600;23.398;2023-12-28T18:10:05;44212.13;;;-138.15;48.69
20897;BME280;10608;42.600;23.398;2023-12-28T18:12:33;44239.69;;;-138.15;48.86
20897;BME280;10608;42.600;23.398;2023-12-28T18:14:59;44198.34;;;-138.15;48.75
20897;BME280;10608;42.600;23.398;2023-12-28T18:17:24;44237.72;;;-138.15;49.01
20897;BME280;10608;42.600;23.398;2023-12-28T18:19:51;44227.88;;;-138.15;48.91
20897;BME280;10608;42.600;23.398;2023-12-28T18:22:16;44259.38;;;-138.15;48.90
20897;BME280;10608;42.600;23.398;2023-12-28T18:24:42;44269.22;;;-138.15;49.12
20897;BME280;10608;42.600;23.398;2023-12-28T18:27:07;44275.13;;;-138.15;49.42
20897;BME280;10608;42.600;23.398;2023-12-28T18:29:32;44279.06;;;-138.15;49.96
20897;BME280;10608;42.600;23.398;2023-12-28T18:31:58;44338.09;;;-138.15;49.55
20897;BME280;10608;42.600;23.398;2023-12-28T18:34:23;44316.44;;;-138.15;50.06
20897;BME280;10608;42.600;23.398;2023-12-28T18:36:48;44320.38;;;-138.15;50.85
20897;BME280;10608;42.600;23.398;2023-12-28T18:39:14;44292.84;;;-138.15;51.20
20897;BME280;10608;42.600;23.398;2023-12-28T18:41:41;44296.78;;;-138.15;52.56
20897;BME280;10608;42.600;23.398;2023-12-28T18:44:07;44257.41;;;-138.15;52.94
20897;BME280;10608;42.600;23.398;2023-12-28T18:46:32;44245.59;;;-138.15;53.07
20897;BME280;10608;42.600;23.398;2023-12-28T18:48:57;44223.94;;;-138.15;53.63
20897;BME280;10608;42.600;23.398;2023-12-28T18:51:23;44257.41;;;-138.15;53.75
20897;BME280;10608;42.600;23.398;2023-12-28T18:53:49;44257.41;;;-138.15;53.10
20897;BME280;10608;42.600;23.398;2023-12-28T18:56:14;44221.97;;;-138.15;54.83
20897;BME280;10608;42.600;23.398;2023-12-28T18:58:40;44202.28;;;-138.15;55.77
20897;BME280;10608;42.600;23.398;2023-12-28T19:01:05;44159.00;;;-138.15;56.30
20897;BME280;10608;42.600;23.398;2023-12-28T19:03:30;44127.50;;;-138.15;56.83
20897;BME280;10608;42.600;23.398;2023-12-28T19:05:57;44099.94;;;-138.15;57.75
20897;BME280;10608;42.600;23.398;2023-12-28T19:08:26;44066.50;;;-138.15;58.30
20897;BME280;10608;42.600;23.398;2023-12-28T19:10:51;44009.41;;;-138.15;58.07
20897;BME280;10608;42.600;23.398;2023-12-28T19:13:17;44023.19;;;-138.15;58.82
20897;BME280;10608;42.600;23.398;2023-12-28T19:15:42;43960.22;;;-138.15;58.58
20897;BME280;10608;42.600;23.398;2023-12-28T19:18:07;43964.16;;;-138.15;58.76
20897;BME280;10608;42.600;23.398;2023-12-28T19:20:33;43863.78;;;-138.15;60.11
20897;BME280;10608;42.600;23.398;2023-12-28T19:22:58;43851.97;;;-138.15;60.02
20897;BME280;10608;42.600;23.398;2023-12-28T19:25:23;43891.34;;;-138.15;59.30
20897;BME280;10608;42.600;23.398;2023-12-28T19:27:49;43859.84;;;-138.15;59.34
20897;BME280;10608;42.600;23.398;2023-12-28T19:30:14;43810.66;;;-138.15;59.23
20897;BME280;10608;42.600;23.398;2023-12-28T19:32:40;43836.22;;;-138.15;58.93
20897;BME280;10608;42.600;23.398;2023-12-28T19:35:06;43794.91;;;-138.15;58.41
20897;BME280;10608;42.600;23.398;2023-12-28T19:37:32;43773.25;;;-138.15;57.72
20897;BME280;10608;42.600;23.398;2023-12-28T19:39:58;43796.88;;;-138.15;57.62
20897;BME280;10608;42.600;23.398;2023-12-28T19:42:23;43741.75;;;-138.15;58.29
20897;BME280;10608;42.600;23.398;2023-12-28T19:44:49;43726.03;;;-138.15;58.01
20897;BME280;10608;42.600;23.398;2023-12-28T19:47:14;43726.03;;;-138.15;57.51
20897;BME280;10608;42.600;23.398;2023-12-28T19:49:39;43745.69;;;-138.15;57.73
20897;BME280;10608;42.600;23.398;2023-12-28T19:52:05;43714.22;;;-138.15;57.95
20897;BME280;10608;42.600;23.398;2023-12-28T19:54:31;43729.97;;;-138.15;58.16
20897;BME280;10608;42.600;23.398;2023-12-28T19:56:56;43763.41;;;-138.15;57.73
20897;BME280;10608;42.600;23.398;2023-12-28T19:59:21;43777.19;;;-138.15;57.52
20897;BME280;10608;42.600;23.398;2023-12-28T20:01:47;43726.03;;;-138.15;58.11
20897;BME280;10608;42.600;23.398;2023-12-28T20:04:13;43771.28;;;-138.15;58.26
20897;BME280;10608;42.600;23.398;2023-12-28T20:06:42;43729.97;;;-138.15;59.45
20897;BME280;10608;42.600;23.398;2023-12-28T20:09:08;43690.59;;;-138.15;60.52
20897;BME280;10608;42.600;23.398;2023-12-28T20:11:34;43674.84;;;-138.15;60.99
20897;BME280;10608;42.600;23.398;2023-12-28T20:13:59;43607.94;;;-138.15;60.88
20897;BME280;10608;42.600;23.398;2023-12-28T20:16:24;43643.38;;;-138.15;60.63
20897;BME280;10608;42.600;23.398;2023-12-28T20:18:50;43631.56;;;-138.15;60.52
20897;BME280;10608;42.600;23.398;2023-12-28T20:21:18;43635.50;;;-138.15;59.71
20897;BME280;10608;42.600;23.398;2023-12-28T20:23:44;43661.06;;;-138.15;59.90
20897;BME280;10608;42.600;23.398;2023-12-28T20:26:09;43672.88;;;-138.15;60.12
20897;BME280;10608;42.600;23.398;2023-12-28T20:28:35;43623.69;;;-138.15;59.27
20897;BME280;10608;42.600;23.398;2023-12-28T20:31:00;43631.56;;;-138.15;58.79
20897;BME280;10608;42.600;23.398;2023-12-28T20:33:25;43588.25;;;-138.15;57.97
20897;BME280;10608;42.600;23.398;2023-12-28T20:35:51;43631.56;;;-138.15;57.12
20897;BME280;10608;42.600;23.398;2023-12-28T20:38:16;43643.38;;;-138.15;56.76
20897;BME280;10608;42.600;23.398;2023-12-28T20:40:42;43655.19;;;-138.15;56.42
20897;BME280;10608;42.600;23.398;2023-12-28T20:43:07;43666.97;;;-138.15;57.01
20897;BME280;10608;42.600;23.398;2023-12-28T20:45:32;43641.41;;;-138.15;56.64
20897;BME280;10608;42.600;23.398;2023-12-28T20:47:58;43639.44;;;-138.15;56.37
20897;BME280;10608;42.600;23.398;2023-12-28T20:50:23;43663.03;;;-138.15;55.48
20897;BME280;10608;42.600;23.398;2023-12-28T20:52:49;43668.94;;;-138.15;55.81
20897;BME280;10608;42.600;23.398;2023-12-28T20:55:14;43666.97;;;-138.15;56.01
20897;BME280;10608;42.600;23.398;2023-12-28T20:57:40;43680.75;;;-138.15;55.99
20897;BME280;10608;42.600;23.398;2023-12-28T21:00:05;43696.50;;;-138.15;55.84
20897;BME280;10608;42.600;23.398;2023-12-28T21:02:32;43729.97;;;-138.15;56.25
20897;BME280;10608;42.600;23.398;2023-12-28T21:04:57;43706.34;;;-138.15;56.90
20897;BME280;10608;42.600;23.398;2023-12-28T21:07:23;43700.44;;;-138.15;57.39
20897;BME280;10608;42.600;23.398;2023-12-28T21:09:49;43688.63;;;-138.15;57.66
20897;BME280;10608;42.600;23.398;2023-12-28T21:12:14;43694.53;;;-138.15;58.36
20897;BME280;10608;42.600;23.398;2023-12-28T21:14:49;43731.94;;;-138.15;58.87
20897;BME280;10608;42.600;23.398;2023-12-28T21:17:14;43696.50;;;-138.15;59.30
20897;BME280;10608;42.600;23.398;2023-12-28T21:19:39;43661.06;;;-138.15;59.71
20897;BME280;10608;42.600;23.398;2023-12-28T21:22:05;43655.19;;;-138.15;60.41
20897;BME280;10608;42.600;23.398;2023-12-28T21:24:30;43661.06;;;-138.15;61.36
20897;BME280;10608;42.600;23.398;2023-12-28T21:26:56;43564.66;;;-138.15;61.37
20897;BME280;10608;42.600;23.398;2023-12-28T21:29:22;43590.22;;;-138.15;60.72
20897;BME280;10608;42.600;23.398;2023-12-28T21:31:47;43564.66;;;-138.15;60.04
20897;BME280;10608;42.600;23.398;2023-12-28T21:34:13;43541.03;;;-138.15;59.41
20897;BME280;10608;42.600;23.398;2023-12-28T21:36:38;43560.72;;;-138.15;58.79
20897;BME280;10608;42.600;23.398;2023-12-28T21:39:07;43558.75;;;-138.15;58.62
20897;BME280;10608;42.600;23.398;2023-12-28T21:41:32;43576.47;;;-138.15;57.97
20897;BME280;10608;42.600;23.398;2023-12-28T21:43:58;43580.41;;;-138.15;58.11
20897;BME280;10608;42.600;23.398;2023-12-28T21:46:23;43596.13;;;-138.15;58.40
20897;BME280;10608;42.600;23.398;2023-12-28T21:48:50;43588.25;;;-138.15;59.09
20897;BME280;10608;42.600;23.398;2023-12-28T21:51:16;43588.25;;;-138.15;59.86
20897;BME280;10608;42.600;23.398;2023-12-28T21:53:42;43552.84;;;-138.15;60.65
20897;BME280;10608;42.600;23.398;2023-12-28T21:56:07;43554.81;;;-138.15;60.89
20897;BME280;10608;42.600;23.398;2023-12-28T21:58:33;43529.22;;;-138.15;62.09
20897;BME280;10608;42.600;23.398;2023-12-28T22:00:58;43552.84;;;-138.15;62.64
20897;BME280;10608;42.600;23.398;2023-12-28T22:03:23;43527.25;;;-138.15;63.13
20897;BME280;10608;42.600;23.398;2023-12-28T22:05:49;43324.56;;;-138.15;63.51
20897;BME280;10608;42.600;23.398;2023-12-28T22:08:14;43482.00;;;-138.15;64.00
20897;BME280;10608;42.600;23.398;2023-12-28T22:10:40;43454.44;;;-138.15;64.66
20897;BME280;10608;42.600;23.398;2023-12-28T22:13:05;43383.63;;;-138.15;65.60
20897;BME280;10608;42.600;23.398;2023-12-28T22:15:31;43360.00;;;-138.15;66.20
20897;BME280;10608;42.600;23.398;2023-12-28T22:17:56;43324.56;;;-138.15;66.64
20897;BME280;10608;42.600;23.398;2023-12-28T22:20:22;43261.63;;;-138.15;67.16
20897;BME280;10608;42.600;23.398;2023-12-28T22:22:47;43186.84;;;-138.15;67.64
20897;BME280;10608;42.600;23.398;2023-12-28T22:25:12;43127.81;;;-138.15;67.88
20897;BME280;10608;42.600;23.398;2023-12-28T22:27:38;43062.88;;;-138.15;67.95
20897;BME280;10608;42.600;23.398;2023-12-28T22:30:03;43009.75;;;-138.15;68.72
20897;BME280;10608;42.600;23.398;2023-12-28T22:32:29;42978.28;;;-138.15;68.55
20897;BME280;10608;42.600;23.398;2023-12-28T22:34:54;42948.75;;;-138.15;69.38
20897;BME280;10608;42.600;23.398;2023-12-28T22:37:20;42842.50;;;-138.15;70.44
20897;BME280;10608;42.600;23.398;2023-12-28T22:39:45;42759.88;;;-138.15;70.23